createdAt,value
2023-04-08T00:01:40.291Z,1.95
2023-04-08T00:04:07.237Z,1.89
2023-04-08T00:06:33.978Z,2.01
2023-04-08T00:09:00.704Z,1.92
2023-04-08T00:11:27.297Z,1.98
2023-04-08T00:13:53.911Z,1.92
2023-04-08T00:16:20.570Z,1.83
2023-04-08T00:18:47.395Z,1.78
2023-04-08T00:21:14.102Z,1.90
2023-04-08T00:23:40.683Z,1.88
2023-04-08T00:26:07.275Z,1.72
2023-04-08T00:28:33.874Z,1.91
2023-04-08T00:31:00.655Z,1.89
2023-04-08T00:33:27.368Z,1.69
2023-04-08T00:35:54.038Z,1.87
2023-04-08T00:38:20.852Z,1.94
2023-04-08T00:40:47.621Z,1.87
2023-04-08T00:43:14.259Z,1.89
2023-04-08T00:45:40.900Z,1.82
2023-04-08T00:48:07.628Z,1.95
2023-04-08T00:50:34.278Z,2.32
2023-04-08T00:53:02.167Z,2.13
2023-04-08T00:55:29.079Z,2.08
2023-04-08T00:57:56.647Z,2.18
2023-04-08T01:00:24.150Z,2.01
2023-04-08T01:03:35.513Z,1.96
2023-04-08T01:06:26.069Z,1.98
2023-04-08T01:08:54.685Z,2.05
2023-04-08T01:11:21.280Z,1.94
2023-04-08T01:13:54.256Z,2.02
2023-04-08T01:16:25.079Z,2.28
2023-04-08T01:18:54.033Z,2.17
2023-04-08T01:21:23.590Z,2.03
2023-04-08T01:24:13.302Z,2.17
2023-04-08T01:26:41.360Z,2.11
2023-04-08T01:29:09.925Z,2.07
2023-04-08T01:31:39.230Z,2.36
2023-04-08T01:34:08.165Z,2.34
2023-04-08T01:36:38.454Z,2.35
2023-04-08T01:39:06.708Z,2.37
2023-04-08T01:41:37.246Z,2.62
2023-04-08T01:44:05.602Z,2.56
2023-04-08T01:46:33.940Z,2.85
2023-04-08T01:49:01.527Z,3.48
2023-04-08T01:51:30.755Z,3.14
2023-04-08T01:53:58.161Z,3.72
2023-04-08T01:56:32.708Z,3.51
2023-04-08T01:59:01.431Z,2.93
2023-04-08T02:01:30.723Z,3.11
2023-04-08T02:04:00.342Z,3.16
2023-04-08T02:06:28.741Z,3.46
2023-04-08T02:08:56.054Z,3.73
2023-04-08T02:11:22.859Z,3.67
2023-04-08T02:13:49.530Z,3.93
2023-04-08T02:16:20.828Z,3.64
2023-04-08T02:19:02.306Z,3.94
2023-04-08T02:21:38.456Z,3.64
2023-04-08T02:24:08.151Z,3.37
2023-04-08T02:26:37.834Z,3.64
2023-04-08T02:29:06.013Z,3.68
2023-04-08T02:31:34.706Z,3.50
2023-04-08T02:34:02.544Z,3.55
2023-04-08T02:36:32.619Z,3.26
2023-04-08T02:38:59.241Z,3.47
2023-04-08T02:41:28.954Z,3.24
2023-04-08T02:43:55.702Z,3.41
2023-04-08T02:46:22.573Z,3.57
2023-04-08T02:48:50.124Z,3.50
2023-04-08T02:51:16.891Z,3.31
2023-04-08T02:53:43.509Z,3.28
2023-04-08T02:56:10.985Z,3.48
2023-04-08T02:58:37.705Z,3.61
2023-04-08T03:01:04.714Z,3.45
2023-04-08T03:03:31.536Z,3.54
2023-04-08T03:05:58.839Z,3.76
2023-04-08T03:08:25.444Z,3.68
2023-04-08T03:10:52.099Z,3.81
2023-04-08T03:13:18.929Z,4.32
2023-04-08T03:15:45.947Z,4.41
2023-04-08T03:18:12.625Z,4.21
2023-04-08T03:20:39.256Z,4.03
2023-04-08T03:23:05.854Z,4.24
2023-04-08T03:25:32.483Z,4.28
2023-04-08T03:27:59.132Z,4.31
2023-04-08T03:30:26.074Z,4.44
2023-04-08T03:32:52.991Z,4.62
2023-04-08T03:35:19.824Z,4.70
2023-04-08T03:37:47.910Z,4.90
2023-04-08T03:40:14.515Z,4.84
2023-04-08T03:42:41.158Z,4.59
2023-04-08T03:45:08.216Z,5.04
2023-04-08T03:47:34.848Z,5.05
2023-04-08T03:50:01.501Z,5.43
2023-04-08T03:52:28.161Z,5.53
2023-04-08T03:54:54.775Z,5.38
2023-04-08T03:57:21.381Z,5.13
2023-04-08T03:59:48.165Z,5.01
2023-04-08T04:02:14.852Z,5.40
2023-04-08T04:04:41.619Z,5.44
2023-04-08T04:07:08.388Z,5.23
2023-04-08T04:09:35.115Z,5.31
2023-04-08T04:12:01.776Z,5.71
2023-04-08T04:14:28.416Z,5.45
2023-04-08T04:16:55.046Z,5.15
2023-04-08T04:19:21.810Z,5.25
2023-04-08T04:21:48.433Z,5.03
2023-04-08T04:24:15.052Z,4.93
2023-04-08T04:26:41.697Z,5.09
2023-04-08T04:29:08.355Z,5.18
2023-04-08T04:31:35.035Z,5.80
2023-04-08T04:34:01.730Z,6.08
2023-04-08T04:36:28.345Z,6.31
2023-04-08T04:38:55.103Z,6.21
2023-04-08T04:41:21.919Z,5.79
2023-04-08T04:43:48.524Z,5.71
2023-04-08T04:46:15.244Z,6.22
2023-04-08T04:48:41.893Z,6.57
2023-04-08T04:51:08.504Z,6.85
2023-04-08T04:53:35.110Z,6.41
2023-04-08T04:56:01.870Z,6.84
2023-04-08T04:58:29.571Z,6.97
2023-04-08T05:00:56.553Z,6.97
2023-04-08T05:03:23.401Z,7.10
2023-04-08T05:05:54.596Z,6.82
2023-04-08T05:08:21.839Z,6.67
2023-04-08T05:10:48.636Z,6.85
2023-04-08T05:13:15.264Z,6.68
2023-04-08T05:15:41.946Z,6.41
2023-04-08T05:18:08.651Z,6.30
2023-04-08T05:20:35.297Z,6.26
2023-04-08T05:23:01.936Z,6.31
2023-04-08T05:25:29.630Z,6.52
2023-04-08T05:27:56.438Z,6.17
2023-04-08T05:30:23.133Z,6.31
2023-04-08T05:32:51.927Z,6.27
2023-04-08T05:35:18.634Z,6.46
2023-04-08T05:37:45.278Z,6.43
2023-04-08T05:40:12.030Z,6.31
2023-04-08T05:42:38.713Z,6.12
2023-04-08T05:45:05.883Z,5.83
2023-04-08T05:47:33.100Z,5.71
2023-04-08T05:49:59.693Z,5.23
2023-04-08T05:52:26.345Z,5.08
2023-04-08T05:54:52.982Z,4.88
2023-04-08T05:57:19.605Z,4.73
2023-04-08T05:59:46.195Z,4.29
2023-04-08T06:02:12.938Z,4.17
2023-04-08T06:04:39.644Z,4.02
2023-04-08T06:07:06.324Z,3.86
2023-04-08T06:09:35.584Z,3.58
2023-04-08T06:12:02.202Z,3.44
2023-04-08T06:14:28.789Z,3.46
2023-04-08T06:16:55.404Z,3.17
2023-04-08T06:19:22.086Z,3.13
2023-04-08T06:21:48.701Z,3.17
2023-04-08T06:24:15.339Z,3.20
2023-04-08T06:26:41.948Z,3.27
2023-04-08T06:29:08.614Z,3.06
2023-04-08T06:31:35.248Z,3.37
2023-04-08T06:34:01.901Z,3.49
2023-04-08T06:36:28.522Z,3.38
2023-04-08T06:38:56.559Z,3.55
2023-04-08T06:41:25.666Z,3.38
2023-04-08T06:43:52.279Z,3.46
2023-04-08T06:46:19.044Z,3.31
2023-04-08T06:48:45.667Z,3.34
2023-04-08T06:51:13.147Z,3.32
2023-04-08T06:53:39.806Z,3.23
2023-04-08T06:56:06.975Z,2.90
2023-04-08T06:58:34.138Z,2.85
2023-04-08T07:01:01.494Z,3.08
2023-04-08T07:03:28.379Z,2.95
2023-04-08T07:05:55.120Z,2.95
2023-04-08T07:08:21.784Z,2.95
2023-04-08T07:10:48.588Z,2.61
2023-04-08T07:13:15.290Z,2.78
2023-04-08T07:15:41.975Z,2.55
2023-04-08T07:18:08.614Z,2.59
2023-04-08T07:20:35.311Z,2.67
2023-04-08T07:23:01.960Z,2.52
2023-04-08T07:25:29.040Z,2.14
2023-04-08T07:27:55.785Z,2.30
2023-04-08T07:30:22.508Z,2.09
2023-04-08T07:32:49.283Z,2.11
2023-04-08T07:35:15.936Z,2.20
2023-04-08T07:37:42.650Z,1.92
2023-04-08T07:40:09.819Z,2.27
2023-04-08T07:42:36.455Z,2.15
2023-04-08T07:45:03.172Z,2.11
2023-04-08T07:47:30.113Z,2.11
2023-04-08T07:49:59.393Z,2.27
2023-04-08T07:52:26.326Z,2.16
2023-04-08T07:54:52.951Z,2.29
2023-04-08T07:57:19.645Z,2.59
2023-04-08T07:59:46.662Z,2.32
2023-04-08T08:02:18.539Z,2.39
2023-04-08T08:04:45.331Z,2.52
2023-04-08T08:07:12.072Z,2.51
2023-04-08T08:09:38.715Z,2.45
2023-04-08T08:12:07.886Z,2.75
2023-04-08T08:14:34.480Z,2.53
2023-04-08T08:17:01.152Z,2.79
2023-04-08T08:19:28.137Z,2.71
2023-04-08T08:21:54.757Z,2.74
2023-04-08T08:24:21.351Z,2.75
2023-04-08T08:26:48.133Z,2.67
2023-04-08T08:29:14.773Z,2.71
2023-04-08T08:31:41.406Z,2.50
2023-04-08T08:34:08.213Z,2.75
2023-04-08T08:36:35.085Z,2.81
2023-04-08T08:39:02.149Z,2.61
2023-04-08T08:41:33.562Z,2.58
2023-04-08T08:44:00.573Z,2.47
2023-04-08T08:46:27.291Z,2.71
2023-04-08T08:48:53.995Z,2.78
2023-04-08T08:51:21.571Z,2.91
2023-04-08T08:53:48.270Z,2.71
2023-04-08T08:56:18.011Z,2.74
2023-04-08T08:58:46.032Z,2.93
2023-04-08T09:01:34.190Z,2.90
2023-04-08T09:04:17.524Z,2.90
2023-04-08T09:06:46.342Z,2.91
2023-04-08T09:09:13.796Z,2.81
2023-04-08T09:11:46.164Z,3.13
2023-04-08T09:14:24.692Z,3.09
2023-04-08T09:16:52.863Z,3.09
2023-04-08T09:19:21.722Z,3.10
2023-04-08T09:22:05.582Z,3.16
2023-04-08T09:24:32.212Z,3.40
2023-04-08T09:26:58.960Z,3.72
2023-04-08T09:29:28.170Z,3.43
2023-04-08T09:31:59.377Z,3.25
2023-04-08T09:34:28.283Z,3.42
2023-04-08T09:36:55.993Z,3.45
2023-04-08T09:39:22.991Z,3.38
2023-04-08T09:41:51.569Z,3.62
2023-04-08T09:44:20.517Z,3.84
2023-04-08T09:46:49.930Z,3.68
2023-04-08T09:49:26.516Z,3.55
2023-04-08T09:52:05.238Z,3.67
2023-04-08T09:54:56.717Z,3.64
2023-04-08T09:57:52.253Z,3.14
2023-04-08T10:00:22.497Z,3.20
2023-04-08T10:03:10.767Z,3.02
2023-04-08T10:05:41.362Z,3.13
2023-04-08T10:08:08.681Z,3.55
2023-04-08T10:10:39.548Z,3.40
2023-04-08T10:13:08.039Z,3.21
2023-04-08T10:15:36.639Z,3.10
2023-04-08T10:18:03.298Z,3.38
2023-04-08T10:20:36.392Z,3.30
2023-04-08T10:23:14.617Z,3.45
2023-04-08T10:25:46.782Z,3.48
2023-04-08T10:28:16.077Z,3.21
2023-04-08T10:30:46.299Z,3.52
2023-04-08T10:33:16.590Z,3.48
2023-04-08T10:35:47.976Z,3.48
2023-04-08T10:38:18.466Z,3.34
2023-04-08T10:40:45.558Z,3.43
2023-04-08T10:43:14.140Z,3.18
2023-04-08T10:45:41.431Z,3.09
2023-04-08T10:48:15.863Z,3.22
2023-04-08T10:50:43.948Z,2.91
2023-04-08T10:53:11.430Z,3.21
2023-04-08T10:55:38.387Z,3.29
2023-04-08T10:58:06.810Z,3.03
2023-04-08T11:00:34.538Z,2.67
2023-04-08T11:03:07.291Z,2.71
2023-04-08T11:05:37.394Z,2.68
2023-04-08T11:08:06.087Z,2.95
2023-04-08T11:10:38.181Z,2.84
2023-04-08T11:13:07.813Z,2.81
2023-04-08T11:15:37.536Z,3.16
2023-04-08T11:18:08.687Z,3.08
2023-04-08T11:20:35.409Z,3.20
2023-04-08T11:23:02.037Z,3.13
2023-04-08T11:25:29.837Z,3.18
2023-04-08T11:27:56.908Z,3.43
2023-04-08T11:30:24.386Z,3.04
2023-04-08T11:32:51.686Z,3.30
2023-04-08T11:35:21.498Z,3.06
2023-04-08T11:37:48.253Z,3.13
2023-04-08T11:40:21.107Z,2.94
2023-04-08T11:42:48.066Z,2.84
2023-04-08T11:45:16.604Z,2.46
2023-04-08T11:47:44.768Z,2.85
2023-04-08T11:50:11.600Z,3.14
2023-04-08T11:52:44.732Z,3.46
2023-04-08T11:55:24.458Z,3.16
2023-04-08T11:57:51.559Z,2.91
2023-04-08T12:00:19.086Z,2.82
2023-04-08T12:02:46.709Z,3.66
2023-04-08T12:05:14.801Z,3.48
2023-04-08T12:07:42.286Z,3.23
2023-04-08T12:10:13.343Z,2.89
2023-04-08T12:12:40.890Z,3.37
2023-04-08T12:15:08.593Z,3.16
2023-04-08T12:17:35.442Z,3.04
2023-04-08T12:20:02.081Z,2.92
2023-04-08T12:22:28.741Z,3.16
2023-04-08T12:24:56.329Z,2.84
2023-04-08T12:27:24.297Z,2.77
2023-04-08T12:29:50.886Z,3.02
2023-04-08T12:32:17.485Z,3.07
2023-04-08T12:34:44.148Z,2.72
2023-04-08T12:37:10.808Z,2.79
2023-04-08T12:39:37.585Z,2.61
2023-04-08T12:42:04.385Z,3.16
2023-04-08T12:44:31.011Z,3.02
2023-04-08T12:47:00.406Z,2.91
2023-04-08T12:49:28.022Z,2.77
2023-04-08T12:51:57.719Z,2.65
2023-04-08T12:54:24.368Z,2.52
2023-04-08T12:56:50.995Z,2.60
2023-04-08T12:59:17.637Z,2.29
2023-04-08T13:01:44.348Z,2.18
2023-04-08T13:04:11.421Z,2.37
2023-04-08T13:06:38.179Z,2.46
2023-04-08T13:09:04.802Z,2.61
2023-04-08T13:11:31.440Z,3.32
2023-04-08T13:13:58.052Z,3.44
2023-04-08T13:16:24.737Z,3.38
2023-04-08T13:18:51.686Z,3.25
2023-04-08T13:21:18.476Z,3.36
2023-04-08T13:23:45.106Z,3.56
2023-04-08T13:26:11.704Z,3.74
2023-04-08T13:28:53.769Z,3.71
2023-04-08T13:31:23.723Z,3.50
2023-04-08T13:33:51.028Z,3.41
2023-04-08T13:36:17.729Z,3.06
2023-04-08T13:38:44.413Z,3.00
2023-04-08T13:41:11.097Z,2.73
2023-04-08T13:43:43.021Z,2.75
2023-04-08T13:46:09.858Z,2.57
2023-04-08T13:48:36.609Z,2.35
2023-04-08T13:51:03.262Z,2.34
2023-04-08T13:53:30.009Z,2.26
2023-04-08T13:55:56.625Z,2.27
2023-04-08T13:58:24.098Z,2.31
2023-04-08T14:00:51.906Z,2.39
2023-04-08T14:03:19.357Z,2.83
2023-04-08T14:05:46.157Z,3.01
2023-04-08T14:08:12.931Z,3.19
2023-04-08T14:10:39.611Z,3.37
2023-04-08T14:13:06.212Z,3.43
2023-04-08T14:15:33.009Z,3.31
2023-04-08T14:17:59.763Z,3.47
2023-04-08T14:20:26.488Z,3.39
2023-04-08T14:22:53.076Z,3.28
2023-04-08T14:25:19.708Z,3.30
2023-04-08T14:27:57.379Z,3.19
2023-04-08T14:30:26.275Z,3.10
2023-04-08T14:32:53.071Z,3.11
2023-04-08T14:35:19.736Z,2.85
2023-04-08T14:37:46.348Z,3.48
2023-04-08T14:40:13.074Z,3.34
2023-04-08T14:42:39.739Z,3.13
2023-04-08T14:45:06.815Z,3.09
2023-04-08T14:47:33.546Z,2.81
2023-04-08T14:50:00.201Z,2.84
2023-04-08T14:52:26.869Z,2.90
2023-04-08T14:54:53.556Z,2.93
2023-04-08T14:57:20.302Z,3.06
2023-04-08T14:59:47.032Z,3.29
2023-04-08T15:02:13.892Z,3.29
2023-04-08T15:04:40.682Z,3.36
2023-04-08T15:07:07.280Z,3.42
2023-04-08T15:09:33.921Z,3.59
2023-04-08T15:12:00.580Z,3.67
2023-04-08T15:14:27.254Z,3.92
2023-04-08T15:16:53.862Z,3.50
2023-04-08T15:19:20.525Z,3.61
2023-04-08T15:21:47.179Z,3.88
2023-04-08T15:24:13.893Z,3.53
2023-04-08T15:26:40.599Z,3.38
2023-04-08T15:29:07.217Z,3.34
2023-04-08T15:31:33.959Z,3.15
2023-04-08T15:34:00.834Z,3.50
2023-04-08T15:36:27.473Z,3.69
2023-04-08T15:38:54.433Z,3.30
2023-04-08T15:41:21.284Z,3.73
2023-04-08T15:43:48.299Z,3.24
2023-04-08T15:46:19.094Z,3.46
2023-04-08T15:48:45.746Z,3.27
2023-04-08T15:51:12.403Z,3.50
2023-04-08T15:53:42.648Z,3.55
2023-04-08T15:56:13.393Z,3.19
2023-04-08T15:58:40.160Z,3.23
2023-04-08T16:01:06.775Z,3.15
2023-04-08T16:03:33.687Z,2.89
2023-04-08T16:06:00.717Z,2.74
2023-04-08T16:08:27.329Z,3.75
2023-04-08T16:10:59.889Z,3.58
2023-04-08T16:13:26.484Z,3.71
2023-04-08T16:15:53.155Z,3.46
2023-04-08T16:18:19.832Z,3.19
2023-04-08T16:20:46.416Z,3.29
2023-04-08T16:23:13.041Z,3.49
2023-04-08T16:25:39.648Z,3.51
2023-04-08T16:28:06.253Z,3.71
2023-04-08T16:30:32.953Z,3.46
2023-04-08T16:32:59.578Z,3.42
2023-04-08T16:35:26.208Z,3.37
2023-04-08T16:37:52.820Z,3.35
2023-04-08T16:40:19.461Z,3.14
2023-04-08T16:42:46.111Z,3.64
2023-04-08T16:45:12.840Z,3.44
2023-04-08T16:47:39.602Z,2.93
2023-04-08T16:50:07.891Z,3.09
2023-04-08T16:52:34.785Z,3.32
2023-04-08T16:55:01.592Z,3.04
2023-04-08T16:57:28.352Z,3.23
2023-04-08T16:59:54.996Z,3.18
2023-04-08T17:02:21.874Z,3.42
2023-04-08T17:04:49.649Z,3.33
2023-04-08T17:07:16.456Z,3.18
2023-04-08T17:09:43.082Z,3.22
2023-04-08T17:12:09.713Z,3.30
2023-04-08T17:14:36.404Z,3.12
2023-04-08T17:17:03.045Z,3.11
2023-04-08T17:19:29.658Z,3.08
2023-04-08T17:21:56.284Z,2.86
2023-04-08T17:24:22.891Z,2.92
2023-04-08T17:26:49.597Z,2.97
2023-04-08T17:29:16.214Z,2.62
2023-04-08T17:31:42.944Z,2.71
2023-04-08T17:34:09.825Z,2.54
2023-04-08T17:36:36.463Z,2.58
2023-04-08T17:39:03.174Z,2.87
2023-04-08T17:41:39.044Z,2.74
2023-04-08T17:44:07.437Z,2.81
2023-04-08T17:46:34.082Z,2.77
2023-04-08T17:49:01.709Z,2.76
2023-04-08T17:51:28.356Z,3.06
2023-04-08T17:53:55.008Z,2.77
2023-04-08T17:56:22.017Z,2.85
2023-04-08T17:58:48.765Z,2.94
2023-04-08T18:01:15.390Z,3.21
2023-04-08T18:03:42.196Z,3.05
2023-04-08T18:06:09.014Z,2.99
2023-04-08T18:08:35.746Z,3.14
2023-04-08T18:11:06.175Z,3.04
2023-04-08T18:13:33.029Z,3.27
2023-04-08T18:15:59.669Z,3.26
2023-04-08T18:18:26.391Z,3.07
2023-04-08T18:20:53.111Z,2.91
2023-04-08T18:23:19.740Z,3.13
2023-04-08T18:25:47.566Z,3.82
2023-04-08T18:28:14.372Z,3.38
2023-04-08T18:30:41.204Z,3.49
2023-04-08T18:33:07.829Z,4.00
2023-04-08T18:35:34.577Z,5.37
2023-04-08T18:38:01.266Z,5.43
2023-04-08T18:40:27.969Z,4.31
2023-04-08T18:42:54.762Z,4.25
2023-04-08T18:45:21.449Z,3.85
2023-04-08T18:47:50.430Z,4.45
2023-04-08T18:50:17.707Z,4.55
2023-04-08T18:52:44.335Z,5.63
2023-04-08T18:55:10.968Z,5.19
2023-04-08T18:57:37.554Z,5.80
2023-04-08T19:00:04.569Z,4.59
2023-04-08T19:02:31.244Z,4.54
2023-04-08T19:04:57.971Z,4.87
2023-04-08T19:07:24.585Z,4.53
2023-04-08T19:09:55.595Z,4.76
2023-04-08T19:12:22.367Z,6.74
2023-04-08T19:14:48.988Z,5.11
2023-04-08T19:17:15.583Z,8.81
2023-04-08T19:19:42.189Z,6.52
2023-04-08T19:22:08.805Z,5.84
2023-04-08T19:24:35.621Z,5.70
2023-04-08T19:27:02.253Z,5.68
2023-04-08T19:29:30.374Z,5.22
2023-04-08T19:31:57.643Z,6.51
2023-04-08T19:34:24.315Z,5.48
2023-04-08T19:36:50.929Z,5.74
2023-04-08T19:39:17.623Z,5.41
2023-04-08T19:41:44.210Z,5.60
2023-04-08T19:44:10.856Z,5.21
2023-04-08T19:46:38.042Z,5.32
2023-04-08T19:49:04.872Z,5.33
2023-04-08T19:51:31.553Z,5.71
2023-04-08T19:53:58.688Z,5.60
2023-04-08T19:56:25.443Z,5.66
2023-04-08T19:58:53.798Z,5.76
2023-04-08T20:01:20.755Z,6.06
2023-04-08T20:03:47.455Z,5.90
2023-04-08T20:06:14.186Z,6.18
2023-04-08T20:08:40.811Z,6.29
2023-04-08T20:11:07.487Z,6.38
2023-04-08T20:13:35.408Z,6.13
2023-04-08T20:16:02.093Z,6.32
2023-04-08T20:18:29.033Z,6.27
2023-04-08T20:20:55.662Z,6.38
2023-04-08T20:23:22.329Z,6.76
2023-04-08T20:25:49.023Z,6.46
2023-04-08T20:28:15.660Z,6.73
2023-04-08T20:30:42.310Z,7.06
2023-04-08T20:33:08.964Z,7.93
2023-04-08T20:35:35.614Z,7.21
2023-04-08T20:38:02.256Z,7.28
2023-04-08T20:40:28.922Z,7.20
2023-04-08T20:42:55.616Z,6.72
2023-04-08T20:45:22.368Z,7.20
2023-04-08T20:47:49.029Z,7.41
2023-04-08T20:50:15.704Z,7.61
2023-04-08T20:52:42.337Z,7.78
2023-04-08T20:55:09.325Z,7.49
2023-04-08T20:57:38.832Z,7.20
2023-04-08T21:00:08.868Z,8.00
2023-04-08T21:02:35.644Z,7.87
2023-04-08T21:05:02.382Z,7.87
2023-04-08T21:07:29.015Z,7.86
2023-04-08T21:09:55.640Z,7.81
2023-04-08T21:12:22.235Z,8.19
2023-04-08T21:14:48.954Z,8.26
2023-04-08T21:17:15.564Z,8.27
2023-04-08T21:19:42.269Z,8.03
2023-04-08T21:22:08.987Z,8.42
2023-04-08T21:24:35.629Z,7.93
2023-04-08T21:27:02.246Z,7.62
2023-04-08T21:29:28.835Z,7.69
2023-04-08T21:31:55.552Z,7.52
2023-04-08T21:34:22.245Z,7.44
2023-04-08T21:36:48.898Z,7.52
2023-04-08T21:39:15.526Z,7.27
2023-04-08T21:41:42.211Z,7.71
2023-04-08T21:44:08.950Z,7.88
2023-04-08T21:46:35.619Z,7.76
2023-04-08T21:49:02.233Z,7.78
2023-04-08T21:51:28.826Z,7.77
2023-04-08T21:53:55.501Z,8.46
2023-04-08T21:56:23.344Z,8.33
2023-04-08T21:58:50.579Z,8.21
2023-04-08T22:01:19.825Z,8.13
2023-04-08T22:03:46.496Z,7.87
2023-04-08T22:06:22.093Z,7.82
2023-04-08T22:08:56.092Z,7.94
2023-04-08T22:11:22.892Z,7.72
2023-04-08T22:13:49.650Z,7.56
2023-04-08T22:16:16.279Z,7.41
2023-04-08T22:18:42.922Z,7.46
2023-04-08T22:21:09.559Z,7.81
2023-04-08T22:23:36.327Z,7.82
2023-04-08T22:26:02.976Z,7.98
2023-04-08T22:28:29.584Z,8.13
2023-04-08T22:30:56.232Z,8.12
2023-04-08T22:33:22.874Z,7.72
2023-04-08T22:35:49.578Z,7.64
2023-04-08T22:38:16.255Z,7.58
2023-04-08T22:40:42.841Z,7.83
2023-04-08T22:43:09.429Z,7.72
2023-04-08T22:45:37.131Z,7.66
2023-04-08T22:48:03.854Z,8.15
2023-04-08T22:50:30.493Z,7.99
2023-04-08T22:52:57.218Z,8.21
2023-04-08T22:55:23.945Z,7.62
2023-04-08T22:57:50.648Z,7.76
2023-04-08T23:00:17.559Z,7.81
2023-04-08T23:02:44.267Z,7.71
2023-04-08T23:05:11.031Z,7.61
2023-04-08T23:07:37.651Z,7.85
2023-04-08T23:10:04.802Z,7.88
2023-04-08T23:12:31.589Z,8.08
2023-04-08T23:14:58.332Z,8.13
2023-04-08T23:17:25.080Z,8.00
2023-04-08T23:19:52.284Z,8.28
2023-04-08T23:22:18.930Z,8.31
2023-04-08T23:24:45.581Z,8.30
2023-04-08T23:27:12.221Z,8.58
2023-04-08T23:29:38.821Z,9.03
2023-04-08T23:32:05.467Z,9.09
2023-04-08T23:34:35.906Z,8.85
2023-04-08T23:37:02.570Z,8.71
2023-04-08T23:39:29.201Z,8.80
2023-04-08T23:41:56.416Z,8.63
2023-04-08T23:44:24.736Z,8.59
2023-04-08T23:46:51.522Z,8.96
2023-04-08T23:49:18.201Z,8.70
2023-04-08T23:51:44.834Z,8.76
2023-04-08T23:54:14.058Z,9.14
2023-04-08T23:56:41.287Z,8.93
2023-04-08T23:59:07.935Z,8.91
